createdAt,value
2018-06-21T00:00:17.689Z,18.80
2018-06-21T00:00:51.608Z,18.80
2018-06-21T00:01:25.540Z,18.80
2018-06-21T00:01:59.463Z,18.80
2018-06-21T00:02:33.370Z,18.70
2018-06-21T00:03:07.501Z,18.70
2018-06-21T00:03:41.416Z,18.80
2018-06-21T00:04:49.001Z,18.70
2018-06-21T00:05:22.964Z,18.70
2018-06-21T00:05:57.231Z,18.70
2018-06-21T00:06:31.144Z,18.70
2018-06-21T00:07:05.410Z,18.70
2018-06-21T00:07:39.330Z,18.70
2018-06-21T00:08:13.314Z,18.70
2018-06-21T00:08:47.177Z,18.70
2018-06-21T00:09:21.069Z,18.70
2018-06-21T00:09:54.983Z,18.70
2018-06-21T00:10:28.880Z,18.70
2018-06-21T00:11:03.207Z,18.60
2018-06-21T00:11:37.469Z,18.60
2018-06-21T00:12:11.382Z,18.60
2018-06-21T00:12:45.231Z,18.60
2018-06-21T00:13:19.152Z,18.60
2018-06-21T00:13:53.047Z,18.60
2018-06-21T00:14:26.984Z,18.60
2018-06-21T00:15:00.880Z,18.60
2018-06-21T00:15:35.139Z,18.60
2018-06-21T00:16:09.059Z,18.60
2018-06-21T00:16:42.946Z,18.50
2018-06-21T00:17:16.990Z,18.50
2018-06-21T00:17:52.007Z,18.50
2018-06-21T00:18:28.781Z,18.50
2018-06-21T00:19:05.713Z,18.50
2018-06-21T00:19:46.285Z,18.50
2018-06-21T00:20:20.650Z,18.50
2018-06-21T00:20:54.531Z,18.50
2018-06-21T00:21:28.459Z,18.50
2018-06-21T00:22:02.945Z,18.40
2018-06-21T00:22:36.824Z,18.50
2018-06-21T00:23:10.744Z,18.40
2018-06-21T00:23:44.749Z,18.40
2018-06-21T00:24:18.675Z,18.40
2018-06-21T00:24:52.604Z,18.40
2018-06-21T00:25:26.500Z,18.40
2018-06-21T00:26:33.940Z,18.40
2018-06-21T00:27:08.103Z,18.40
2018-06-21T00:27:41.999Z,18.40
2018-06-21T00:28:15.871Z,18.40
2018-06-21T00:28:49.816Z,18.40
2018-06-21T00:29:23.762Z,18.30
2018-06-21T00:29:57.845Z,18.40
2018-06-21T00:30:31.756Z,18.40
2018-06-21T00:31:05.638Z,18.30
2018-06-21T00:31:39.569Z,18.40
2018-06-21T00:32:13.439Z,18.30
2018-06-21T00:33:54.494Z,18.30
2018-06-21T00:34:28.448Z,18.30
2018-06-21T00:35:02.343Z,18.30
2018-06-21T00:35:36.215Z,18.30
2018-06-21T00:36:43.671Z,18.30
2018-06-21T00:37:51.141Z,18.30
2018-06-21T00:38:25.417Z,18.30
2018-06-21T00:38:59.383Z,18.30
2018-06-21T00:39:33.273Z,18.30
2018-06-21T00:40:07.528Z,18.30
2018-06-21T00:40:41.369Z,18.20
2018-06-21T00:41:15.224Z,18.20
2018-06-21T00:41:49.136Z,18.20
2018-06-21T00:42:22.997Z,18.20
2018-06-21T00:42:56.860Z,18.20
2018-06-21T00:43:30.789Z,18.20
2018-06-21T00:44:04.719Z,18.20
2018-06-21T00:44:38.653Z,18.20
2018-06-21T00:45:12.925Z,18.20
2018-06-21T00:45:46.915Z,18.20
2018-06-21T00:46:54.445Z,18.20
2018-06-21T00:47:28.400Z,18.10
2018-06-21T00:48:02.321Z,18.10
2018-06-21T00:48:36.882Z,18.10
2018-06-21T00:49:10.825Z,18.20
2018-06-21T00:49:44.743Z,18.10
2018-06-21T00:50:18.736Z,18.10
2018-06-21T00:50:52.665Z,18.10
2018-06-21T00:51:26.806Z,18.10
2018-06-21T00:52:02.029Z,18.10
2018-06-21T00:52:36.077Z,18.10
2018-06-21T00:53:10.064Z,18.10
2018-06-21T00:53:43.996Z,18.10
2018-06-21T00:54:51.701Z,18.10
2018-06-21T00:55:36.998Z,18.10
2018-06-21T00:56:15.709Z,18.10
2018-06-21T00:56:49.687Z,18.10
2018-06-21T00:57:23.649Z,18.10
2018-06-21T00:57:57.813Z,18.10
2018-06-21T00:58:31.729Z,18.10
2018-06-21T00:59:05.915Z,18.10
2018-06-21T00:59:39.875Z,18.10
2018-06-21T01:00:13.907Z,18.10
2018-06-21T01:00:47.784Z,18.10
2018-06-21T01:01:21.696Z,18.10
2018-06-21T01:01:55.620Z,18.10
2018-06-21T01:02:29.685Z,18.10
2018-06-21T01:03:03.690Z,18.10
2018-06-21T01:03:37.543Z,18.10
2018-06-21T01:04:11.441Z,18.10
2018-06-21T01:04:45.887Z,18.00
2018-06-21T01:05:19.913Z,18.10
2018-06-21T01:05:53.877Z,18.10
2018-06-21T01:06:27.760Z,18.00
2018-06-21T01:07:01.700Z,18.00
2018-06-21T01:07:35.627Z,18.10
2018-06-21T01:08:09.523Z,18.00
2018-06-21T01:08:43.646Z,18.00
2018-06-21T01:09:17.535Z,18.00
2018-06-21T01:09:51.481Z,18.00
2018-06-21T01:10:25.395Z,18.00
2018-06-21T01:10:59.607Z,18.00
2018-06-21T01:11:33.545Z,18.00
2018-06-21T01:12:07.618Z,18.00
2018-06-21T01:12:41.825Z,18.00
2018-06-21T01:13:16.041Z,18.00
2018-06-21T01:13:49.949Z,18.00
2018-06-21T01:14:24.069Z,18.00
2018-06-21T01:15:31.585Z,17.90
2018-06-21T01:16:05.798Z,17.90
2018-06-21T01:16:39.791Z,18.00
2018-06-21T01:17:13.664Z,17.90
2018-06-21T01:17:47.545Z,17.90
2018-06-21T01:18:21.570Z,18.00
2018-06-21T01:18:55.979Z,18.00
2018-06-21T01:19:29.973Z,17.90
2018-06-21T01:20:03.994Z,17.90
2018-06-21T01:20:37.934Z,17.90
2018-06-21T01:21:12.163Z,17.90
2018-06-21T01:21:46.037Z,18.00
2018-06-21T01:22:54.446Z,17.90
2018-06-21T01:23:28.380Z,17.90
2018-06-21T01:24:02.716Z,18.00
2018-06-21T01:24:36.613Z,17.90
2018-06-21T01:25:10.616Z,17.90
2018-06-21T01:25:44.577Z,17.90
2018-06-21T01:26:18.562Z,17.90
2018-06-21T01:26:52.549Z,17.90
2018-06-21T01:27:27.151Z,17.90
2018-06-21T01:28:01.159Z,17.90
2018-06-21T01:28:35.060Z,17.90
2018-06-21T01:29:09.047Z,17.90
2018-06-21T01:29:43.093Z,17.90
2018-06-21T01:30:17.066Z,17.90
2018-06-21T01:30:50.943Z,17.90
2018-06-21T01:31:24.936Z,17.90
2018-06-21T01:31:59.189Z,17.90
2018-06-21T01:32:33.065Z,17.90
2018-06-21T01:33:07.316Z,17.80
2018-06-21T01:33:41.231Z,17.80
2018-06-21T01:34:15.201Z,17.80
2018-06-21T01:34:49.101Z,17.80
2018-06-21T01:35:56.757Z,17.80
2018-06-21T01:36:30.633Z,17.80
2018-06-21T01:37:04.925Z,17.80
2018-06-21T01:37:38.910Z,17.80
2018-06-21T01:38:12.811Z,17.80
2018-06-21T01:38:46.691Z,17.80
2018-06-21T01:39:20.950Z,17.80
2018-06-21T01:41:02.925Z,17.70
2018-06-21T01:41:37.030Z,17.80
2018-06-21T01:42:10.953Z,17.70
2018-06-21T01:42:44.899Z,17.70
2018-06-21T01:43:19.075Z,17.80
2018-06-21T01:43:53.092Z,17.70
2018-06-21T01:44:27.066Z,17.70
2018-06-21T01:45:00.941Z,17.70
2018-06-21T01:45:34.919Z,17.70
2018-06-21T01:46:08.924Z,17.70
2018-06-21T01:46:42.812Z,17.70
2018-06-21T01:47:50.303Z,17.70
2018-06-21T01:48:24.155Z,17.70
2018-06-21T01:48:58.127Z,17.70
2018-06-21T01:49:31.993Z,17.70
2018-06-21T01:50:05.941Z,17.70
2018-06-21T01:50:40.571Z,17.70
2018-06-21T01:51:14.501Z,17.70
2018-06-21T01:51:48.371Z,17.70
2018-06-21T01:52:22.369Z,17.70
2018-06-21T01:52:56.248Z,17.70
2018-06-21T01:53:30.135Z,17.70
2018-06-21T01:54:03.961Z,17.70
2018-06-21T01:54:37.805Z,17.70
2018-06-21T01:55:11.682Z,17.70
2018-06-21T01:55:45.565Z,17.70
2018-06-21T01:56:19.447Z,17.60
2018-06-21T01:56:53.267Z,17.60
2018-06-21T01:57:27.113Z,17.60
2018-06-21T01:58:34.562Z,17.60
2018-06-21T01:59:08.453Z,17.60
2018-06-21T01:59:42.315Z,17.60
2018-06-21T02:00:16.535Z,17.60
2018-06-21T02:00:50.459Z,17.60
2018-06-21T02:01:24.365Z,17.60
2018-06-21T02:01:58.291Z,17.60
2018-06-21T02:02:32.142Z,17.60
2018-06-21T02:03:06.345Z,17.60
2018-06-21T02:03:40.335Z,17.60
2018-06-21T02:04:14.271Z,17.60
2018-06-21T02:04:48.201Z,17.60
2018-06-21T02:05:22.123Z,17.60
2018-06-21T02:05:56.055Z,17.60
2018-06-21T02:06:30.029Z,17.60
2018-06-21T02:07:04.271Z,17.60
2018-06-21T02:07:38.613Z,17.60
2018-06-21T02:08:13.104Z,17.60
2018-06-21T02:08:47.005Z,17.60
2018-06-21T02:09:20.911Z,17.60
2018-06-21T02:09:54.921Z,17.60
2018-06-21T02:10:29.549Z,17.60
2018-06-21T02:11:03.480Z,17.60
2018-06-21T02:11:37.373Z,17.60
2018-06-21T02:12:11.341Z,17.60
2018-06-21T02:12:45.247Z,17.50
2018-06-21T02:13:19.452Z,17.50
2018-06-21T02:13:53.775Z,17.60
2018-06-21T02:14:27.697Z,17.50
2018-06-21T02:15:01.615Z,17.50
2018-06-21T02:15:35.505Z,17.50
2018-06-21T02:16:09.472Z,17.50
2018-06-21T02:16:43.809Z,17.50
2018-06-21T02:17:17.719Z,17.50
2018-06-21T02:17:51.616Z,17.50
2018-06-21T02:18:25.493Z,17.50
2018-06-21T02:18:59.466Z,17.50
2018-06-21T02:19:34.120Z,17.50
2018-06-21T02:20:08.319Z,17.50
2018-06-21T02:20:42.235Z,17.50
2018-06-21T02:21:50.020Z,17.50
2018-06-21T02:22:24.227Z,17.40
2018-06-21T02:24:06.074Z,17.40
2018-06-21T02:24:39.988Z,17.40
2018-06-21T02:25:14.289Z,17.40
2018-06-21T02:25:48.186Z,17.40
2018-06-21T02:26:22.133Z,17.40
2018-06-21T02:26:56.385Z,17.40
2018-06-21T02:27:30.613Z,17.40
2018-06-21T02:28:04.869Z,17.40
2018-06-21T02:28:38.806Z,17.40
2018-06-21T02:29:12.685Z,17.40
2018-06-21T02:29:46.607Z,17.40
2018-06-21T02:30:20.586Z,17.40
2018-06-21T02:30:54.467Z,17.30
2018-06-21T02:31:28.705Z,17.40
2018-06-21T02:32:02.602Z,17.30
2018-06-21T02:32:36.461Z,17.30
2018-06-21T02:33:10.334Z,17.30
2018-06-21T02:33:44.246Z,17.30
2018-06-21T02:34:18.157Z,17.30
2018-06-21T02:35:26.186Z,17.30
2018-06-21T02:36:00.108Z,17.30
2018-06-21T02:36:34.030Z,17.30
2018-06-21T02:37:07.908Z,17.30
2018-06-21T02:37:42.202Z,17.30
2018-06-21T02:38:16.061Z,17.30
2018-06-21T02:38:49.954Z,17.30
2018-06-21T02:39:23.855Z,17.30
2018-06-21T02:39:57.872Z,17.30
2018-06-21T02:40:31.729Z,17.30
2018-06-21T02:41:06.028Z,17.30
2018-06-21T02:41:39.954Z,17.30
2018-06-21T02:42:14.192Z,17.30
2018-06-21T02:42:48.135Z,17.30
2018-06-21T02:43:22.021Z,17.30
2018-06-21T02:43:55.928Z,17.30
2018-06-21T02:45:10.244Z,17.30
2018-06-21T02:45:44.422Z,17.30
2018-06-21T02:46:18.375Z,17.30
2018-06-21T02:46:52.617Z,17.30
2018-06-21T02:47:26.502Z,17.30
2018-06-21T02:48:00.413Z,17.30
2018-06-21T02:48:34.320Z,17.20
2018-06-21T02:49:08.214Z,17.20
2018-06-21T02:49:42.137Z,17.20
2018-06-21T02:50:16.030Z,17.20
2018-06-21T02:50:49.951Z,17.20
2018-06-21T02:51:23.910Z,17.20
2018-06-21T02:51:57.822Z,17.20
2018-06-21T02:52:32.092Z,17.20
2018-06-21T02:53:06.026Z,17.30
2018-06-21T02:53:39.981Z,17.30
2018-06-21T02:54:14.025Z,17.30
2018-06-21T02:54:47.889Z,17.30
2018-06-21T02:55:22.146Z,17.30
2018-06-21T02:55:56.105Z,17.30
2018-06-21T02:56:30.097Z,17.30
2018-06-21T02:57:04.054Z,17.30
2018-06-21T02:57:38.010Z,17.30
2018-06-21T02:58:11.934Z,17.30
2018-06-21T02:58:45.825Z,17.30
2018-06-21T02:59:19.919Z,17.30
2018-06-21T02:59:53.848Z,17.30
2018-06-21T03:00:27.778Z,17.30
2018-06-21T03:01:01.683Z,17.30
2018-06-21T03:01:35.565Z,17.30
2018-06-21T03:02:09.475Z,17.30
2018-06-21T03:02:43.404Z,17.30
2018-06-21T03:03:17.475Z,17.30
2018-06-21T03:03:51.363Z,17.30
2018-06-21T03:04:25.200Z,17.30
2018-06-21T03:04:59.092Z,17.30
2018-06-21T03:05:33.298Z,17.30
2018-06-21T03:06:07.268Z,17.30
2018-06-21T03:06:41.152Z,17.30
2018-06-21T03:07:15.060Z,17.30
2018-06-21T03:07:48.956Z,17.30
2018-06-21T03:08:22.852Z,17.30
2018-06-21T03:08:56.739Z,17.40
2018-06-21T03:09:31.047Z,17.30
2018-06-21T03:10:04.940Z,17.40
2018-06-21T03:10:38.864Z,17.30
2018-06-21T03:11:13.086Z,17.40
2018-06-21T03:11:46.984Z,17.40
2018-06-21T03:12:21.900Z,17.40
2018-06-21T03:12:55.765Z,17.40
2018-06-21T03:13:29.670Z,17.40
2018-06-21T03:14:03.648Z,17.40
2018-06-21T03:14:37.557Z,17.40
2018-06-21T03:15:11.472Z,17.40
2018-06-21T03:15:45.373Z,17.40
2018-06-21T03:16:19.468Z,17.40
2018-06-21T03:16:53.671Z,17.40
2018-06-21T03:17:27.572Z,17.50
2018-06-21T03:18:01.437Z,17.50
2018-06-21T03:18:35.326Z,17.50
2018-06-21T03:19:09.236Z,17.50
2018-06-21T03:19:43.157Z,17.50
2018-06-21T03:20:17.396Z,17.50
2018-06-21T03:20:51.277Z,17.60
2018-06-21T03:21:25.139Z,17.60
2018-06-21T03:21:59.016Z,17.60
2018-06-21T03:22:33.152Z,17.60
2018-06-21T03:23:07.234Z,17.60
2018-06-21T03:23:41.132Z,17.60
2018-06-21T03:24:15.362Z,17.70
2018-06-21T03:24:49.246Z,17.80
2018-06-21T03:25:23.172Z,17.80
2018-06-21T03:25:57.052Z,17.90
2018-06-21T03:26:30.942Z,18.00
2018-06-21T03:27:05.032Z,18.10
2018-06-21T03:27:38.973Z,18.20
2018-06-21T03:28:12.868Z,18.30
2018-06-21T03:28:46.737Z,18.40
2018-06-21T03:29:20.634Z,18.50
2018-06-21T03:29:54.535Z,18.60
2018-06-21T03:30:28.426Z,18.70
2018-06-21T03:31:04.014Z,18.80
2018-06-21T03:31:37.938Z,18.90
2018-06-21T03:32:12.044Z,19.10
2018-06-21T03:32:46.004Z,19.10
2018-06-21T03:33:19.894Z,19.20
2018-06-21T03:33:53.790Z,19.30
2018-06-21T03:34:27.678Z,19.40
2018-06-21T03:35:35.170Z,19.50
2018-06-21T03:36:43.158Z,19.80
2018-06-21T03:37:17.054Z,19.80
2018-06-21T03:37:51.028Z,19.90
2018-06-21T03:38:25.526Z,20.00
2018-06-21T03:38:59.561Z,20.00
2018-06-21T03:39:33.492Z,20.10
2018-06-21T03:40:07.386Z,20.20
2018-06-21T03:40:41.283Z,20.20
2018-06-21T03:41:15.176Z,20.30
2018-06-21T03:41:49.078Z,20.40
2018-06-21T03:42:23.594Z,20.50
2018-06-21T03:42:57.790Z,20.60
2018-06-21T03:43:31.852Z,20.60
2018-06-21T03:44:05.828Z,20.70
2018-06-21T03:45:13.502Z,20.90
2018-06-21T03:45:47.406Z,20.90
2018-06-21T03:46:21.331Z,21.00
2018-06-21T03:46:55.260Z,21.10
2018-06-21T03:47:29.252Z,21.20
2018-06-21T03:48:03.156Z,21.20
2018-06-21T03:48:37.042Z,21.30
2018-06-21T03:49:10.926Z,21.40
2018-06-21T03:49:44.802Z,21.40
2018-06-21T03:50:18.714Z,21.50
2018-06-21T03:50:52.630Z,21.60
2018-06-21T03:51:26.505Z,21.60
2018-06-21T03:52:00.472Z,21.60
2018-06-21T03:52:34.453Z,21.70
2018-06-21T03:53:08.533Z,21.80
2018-06-21T03:53:42.568Z,21.80
2018-06-21T03:54:16.436Z,21.90
2018-06-21T03:54:50.382Z,21.90
2018-06-21T03:55:24.406Z,22.00
2018-06-21T03:55:58.698Z,22.00
2018-06-21T03:56:32.584Z,22.10
2018-06-21T03:57:06.543Z,22.10
2018-06-21T03:57:40.486Z,22.20
2018-06-21T03:58:15.026Z,22.20
2018-06-21T03:58:48.900Z,22.20
2018-06-21T03:59:22.844Z,22.30
2018-06-21T03:59:56.716Z,22.30
2018-06-21T04:00:30.738Z,22.30
2018-06-21T04:01:04.726Z,22.40
2018-06-21T04:01:38.654Z,22.40
2018-06-21T04:02:12.614Z,22.40
2018-06-21T04:02:46.916Z,22.50
2018-06-21T04:03:20.966Z,22.50
2018-06-21T04:03:54.873Z,22.60
2018-06-21T04:04:34.204Z,22.60
2018-06-21T04:05:08.504Z,22.70
2018-06-21T04:05:42.591Z,22.80
2018-06-21T04:06:16.508Z,22.80
2018-06-21T04:06:50.402Z,22.80
2018-06-21T04:07:24.350Z,22.90
2018-06-21T04:07:58.560Z,22.90
2018-06-21T04:08:32.500Z,23.00
2018-06-21T04:09:08.645Z,23.00
2018-06-21T04:09:42.524Z,23.10
2018-06-21T04:10:16.378Z,23.20
2018-06-21T04:10:50.558Z,23.20
2018-06-21T04:11:58.030Z,23.30
2018-06-21T04:12:32.090Z,23.40
2018-06-21T04:13:05.976Z,23.50
2018-06-21T04:13:39.935Z,23.50
2018-06-21T04:14:14.235Z,23.60
2018-06-21T04:14:48.136Z,23.70
2018-06-21T04:15:22.006Z,23.70
2018-06-21T04:15:56.256Z,23.70
2018-06-21T04:16:30.239Z,23.70
2018-06-21T04:17:04.147Z,23.60
2018-06-21T04:17:38.046Z,23.50
2018-06-21T04:18:12.413Z,23.50
2018-06-21T04:18:46.310Z,23.40
2018-06-21T04:19:20.209Z,23.30
2018-06-21T04:19:54.079Z,23.20
2018-06-21T04:20:28.162Z,23.10
2018-06-21T04:21:02.338Z,23.00
2018-06-21T04:21:36.376Z,22.90
2018-06-21T04:22:10.294Z,22.80
2018-06-21T04:22:44.205Z,22.80
2018-06-21T04:23:18.116Z,22.70
2018-06-21T04:23:52.062Z,22.70
2018-06-21T04:24:25.974Z,22.60
2018-06-21T04:24:59.888Z,22.50
2018-06-21T04:25:33.828Z,22.50
2018-06-21T04:26:07.728Z,22.40
2018-06-21T04:26:41.576Z,22.40
2018-06-21T04:27:15.489Z,22.30
2018-06-21T04:27:49.360Z,22.30
2018-06-21T04:28:23.288Z,22.30
2018-06-21T04:28:57.212Z,22.30
2018-06-21T04:29:31.122Z,22.40
2018-06-21T04:30:05.253Z,22.40
2018-06-21T04:30:39.162Z,22.50
2018-06-21T04:31:13.174Z,22.60
2018-06-21T04:31:47.082Z,22.70
2018-06-21T04:32:21.021Z,22.80
2018-06-21T04:32:55.144Z,22.80
2018-06-21T04:33:29.618Z,22.90
2018-06-21T04:34:04.494Z,23.00
2018-06-21T04:34:38.425Z,23.10
2018-06-21T04:35:12.292Z,23.20
2018-06-21T04:35:46.345Z,23.30
2018-06-21T04:36:20.254Z,23.40
2018-06-21T04:36:54.464Z,23.50
2018-06-21T04:37:29.372Z,23.60
2018-06-21T04:38:03.270Z,23.70
2018-06-21T04:38:37.160Z,23.80
2018-06-21T04:39:11.078Z,23.90
2018-06-21T04:39:44.964Z,24.00
2018-06-21T04:40:19.130Z,24.10
2018-06-21T04:40:53.196Z,24.20
2018-06-21T04:41:27.190Z,24.30
2018-06-21T04:42:01.780Z,24.40
2018-06-21T04:42:35.926Z,24.50
2018-06-21T04:43:10.210Z,24.50
2018-06-21T04:43:44.150Z,24.60
2018-06-21T04:44:18.130Z,24.60
2018-06-21T04:44:52.056Z,24.70
2018-06-21T04:45:25.919Z,24.70
2018-06-21T04:45:59.874Z,24.80
2018-06-21T04:46:33.856Z,24.80
2018-06-21T04:47:08.252Z,24.80
2018-06-21T04:47:42.135Z,24.90
2018-06-21T04:48:19.729Z,24.90
2018-06-21T04:48:54.582Z,24.90
2018-06-21T04:49:28.922Z,25.00
2018-06-21T04:50:03.804Z,25.00
2018-06-21T04:50:37.766Z,25.10
2018-06-21T04:51:11.796Z,25.10
2018-06-21T04:51:45.840Z,25.10
2018-06-21T04:52:19.773Z,25.20
2018-06-21T04:52:53.734Z,25.20
2018-06-21T04:54:01.202Z,25.20
2018-06-21T04:54:35.075Z,25.20
2018-06-21T04:55:09.232Z,25.20
2018-06-21T04:55:43.108Z,25.20
2018-06-21T04:56:17.083Z,25.20
2018-06-21T04:57:24.584Z,25.20
2018-06-21T04:57:58.834Z,25.20
2018-06-21T04:58:32.825Z,25.20
2018-06-21T04:59:06.728Z,25.20
2018-06-21T04:59:40.678Z,25.20
2018-06-21T05:00:14.667Z,25.30
2018-06-21T05:00:48.546Z,25.40
2018-06-21T05:01:22.444Z,25.40
2018-06-21T05:01:56.589Z,25.50
2018-06-21T05:02:30.474Z,25.50
2018-06-21T05:03:04.439Z,25.60
2018-06-21T05:03:38.328Z,25.60
2018-06-21T05:04:12.192Z,25.70
2018-06-21T05:04:46.541Z,25.70
2018-06-21T05:05:20.625Z,25.70
2018-06-21T05:05:54.562Z,25.70
2018-06-21T05:06:28.636Z,25.60
2018-06-21T05:07:02.722Z,25.60
2018-06-21T05:07:36.582Z,25.70
2018-06-21T05:08:10.790Z,25.70
2018-06-21T05:08:45.037Z,25.80
2018-06-21T05:09:18.952Z,25.80
2018-06-21T05:09:52.912Z,25.90
2018-06-21T05:10:26.848Z,25.90
2018-06-21T05:11:00.772Z,25.90
2018-06-21T05:11:34.690Z,25.80
2018-06-21T05:12:08.550Z,25.80
2018-06-21T05:12:42.772Z,25.70
2018-06-21T05:13:16.650Z,25.70
2018-06-21T05:13:50.540Z,25.60
2018-06-21T05:14:24.434Z,25.60
2018-06-21T05:14:58.326Z,25.60
2018-06-21T05:15:32.221Z,25.70
2018-06-21T05:16:06.424Z,25.60
2018-06-21T05:16:40.670Z,25.70
2018-06-21T05:17:14.765Z,25.70
2018-06-21T05:17:48.652Z,25.70
2018-06-21T05:18:22.598Z,25.80
2018-06-21T05:18:56.668Z,25.80
2018-06-21T05:19:30.553Z,25.90
2018-06-21T05:20:04.817Z,25.90
2018-06-21T05:20:38.672Z,25.90
2018-06-21T05:21:12.536Z,25.90
2018-06-21T05:21:46.385Z,25.90
2018-06-21T05:22:20.248Z,25.90
2018-06-21T05:22:54.162Z,25.90
2018-06-21T05:23:28.041Z,25.90
2018-06-21T05:24:01.910Z,25.90
2018-06-21T05:24:35.803Z,26.00
2018-06-21T05:25:09.717Z,26.10
2018-06-21T05:25:43.966Z,26.10
2018-06-21T05:26:17.897Z,26.10
2018-06-21T05:26:51.773Z,26.10
2018-06-21T05:27:25.633Z,26.10
2018-06-21T05:27:59.621Z,26.10
2018-06-21T05:28:33.502Z,26.10
2018-06-21T05:29:07.411Z,26.20
2018-06-21T05:29:41.266Z,26.20
2018-06-21T05:30:15.186Z,26.30
2018-06-21T05:30:49.051Z,26.40
2018-06-21T05:31:22.918Z,26.40
2018-06-21T05:31:57.166Z,26.50
2018-06-21T05:32:31.334Z,26.50
2018-06-21T05:33:05.208Z,26.40
2018-06-21T05:33:39.153Z,26.40
2018-06-21T05:34:13.050Z,26.40
2018-06-21T05:34:46.926Z,26.40
2018-06-21T05:35:20.904Z,26.30
2018-06-21T05:35:54.789Z,26.20
2018-06-21T05:36:28.694Z,26.10
2018-06-21T05:37:02.635Z,25.90
2018-06-21T05:37:36.530Z,25.90
2018-06-21T05:38:10.433Z,25.80
2018-06-21T05:38:44.558Z,25.70
2018-06-21T05:39:18.452Z,25.60
2018-06-21T05:39:52.372Z,25.60
2018-06-21T05:40:35.822Z,25.50
2018-06-21T05:41:09.706Z,25.40
2018-06-21T05:41:43.625Z,25.40
2018-06-21T05:42:17.554Z,25.40
2018-06-21T05:42:51.443Z,25.30
2018-06-21T05:43:25.360Z,25.30
2018-06-21T05:43:59.213Z,25.30
2018-06-21T05:44:33.151Z,25.30
2018-06-21T05:45:06.999Z,25.40
2018-06-21T05:45:40.936Z,25.40
2018-06-21T05:46:14.790Z,25.30
2018-06-21T05:46:48.653Z,25.30
2018-06-21T05:47:22.568Z,25.20
2018-06-21T05:47:57.300Z,25.10
2018-06-21T05:48:31.272Z,25.10
2018-06-21T05:49:05.117Z,25.00
2018-06-21T05:49:38.996Z,24.90
2018-06-21T05:50:12.878Z,24.90
2018-06-21T05:50:46.974Z,24.80
2018-06-21T05:51:20.931Z,24.80
2018-06-21T05:51:54.835Z,24.80
2018-06-21T05:52:28.700Z,24.80
2018-06-21T05:53:02.862Z,24.90
2018-06-21T05:53:36.770Z,24.90
2018-06-21T05:54:10.637Z,25.00
2018-06-21T05:54:44.493Z,25.00
2018-06-21T05:55:18.408Z,25.10
2018-06-21T05:55:52.313Z,25.10
2018-06-21T05:56:26.179Z,25.20
2018-06-21T05:57:00.065Z,25.30
2018-06-21T05:57:33.916Z,25.40
2018-06-21T05:58:08.104Z,25.40
2018-06-21T05:58:41.977Z,25.60
2018-06-21T05:59:15.880Z,25.60
2018-06-21T05:59:49.840Z,25.70
2018-06-21T06:00:23.751Z,25.70
2018-06-21T06:00:57.709Z,25.80
2018-06-21T06:01:31.582Z,25.80
2018-06-21T06:02:05.799Z,25.80
2018-06-21T06:02:39.937Z,25.90
2018-06-21T06:03:13.827Z,25.90
2018-06-21T06:03:47.907Z,25.90
2018-06-21T06:04:21.851Z,25.90
2018-06-21T06:04:55.747Z,25.80
2018-06-21T06:05:29.640Z,25.80
2018-06-21T06:06:04.061Z,25.70
2018-06-21T06:06:37.961Z,25.70
2018-06-21T06:07:11.861Z,25.70
2018-06-21T06:07:45.745Z,25.60
2018-06-21T06:08:19.684Z,25.60
2018-06-21T06:08:53.739Z,25.60
2018-06-21T06:09:27.695Z,25.60
2018-06-21T06:10:01.683Z,25.60
2018-06-21T06:10:36.026Z,25.70
2018-06-21T06:11:10.020Z,25.70
2018-06-21T06:11:43.911Z,25.70
2018-06-21T06:12:17.848Z,25.80
2018-06-21T06:12:51.819Z,25.80
2018-06-21T06:13:26.033Z,25.90
2018-06-21T06:13:59.927Z,25.90
2018-06-21T06:14:34.077Z,25.90
2018-06-21T06:15:08.276Z,25.90
2018-06-21T06:15:42.486Z,25.80
2018-06-21T06:16:16.451Z,25.90
2018-06-21T06:16:50.417Z,25.80
2018-06-21T06:17:24.347Z,25.80
2018-06-21T06:17:58.267Z,25.70
2018-06-21T06:18:32.161Z,25.70
2018-06-21T06:19:06.055Z,25.70
2018-06-21T06:19:39.925Z,25.70
2018-06-21T06:20:13.817Z,25.70
2018-06-21T06:20:47.741Z,25.70
2018-06-21T06:21:21.666Z,25.70
2018-06-21T06:21:55.886Z,25.70
2018-06-21T06:22:29.752Z,25.70
2018-06-21T06:23:03.970Z,25.60
2018-06-21T06:23:37.921Z,25.50
2018-06-21T06:24:11.814Z,25.40
2018-06-21T06:24:45.653Z,25.40
2018-06-21T06:25:19.511Z,25.30
2018-06-21T06:25:53.400Z,25.20
2018-06-21T06:26:27.371Z,25.20
2018-06-21T06:27:01.267Z,25.10
2018-06-21T06:27:35.201Z,25.10
2018-06-21T06:28:09.109Z,25.00
2018-06-21T06:28:43.081Z,24.90
2018-06-21T06:29:17.191Z,24.90
2018-06-21T06:29:51.629Z,24.90
2018-06-21T06:30:25.642Z,24.90
2018-06-21T06:30:59.625Z,24.90
2018-06-21T06:31:33.569Z,24.90
2018-06-21T06:32:07.524Z,24.90
2018-06-21T06:32:41.391Z,24.90
2018-06-21T06:33:15.323Z,24.90
2018-06-21T06:33:49.251Z,24.90
2018-06-21T06:34:23.157Z,25.00
2018-06-21T06:34:57.061Z,25.10
2018-06-21T06:35:31.564Z,25.00
2018-06-21T06:36:05.533Z,25.00
2018-06-21T06:36:39.493Z,25.10
2018-06-21T06:37:13.403Z,25.10
2018-06-21T06:37:47.361Z,25.10
2018-06-21T06:38:21.247Z,25.10
2018-06-21T06:38:55.629Z,25.10
2018-06-21T06:39:29.553Z,25.10
2018-06-21T06:40:03.628Z,25.20
2018-06-21T06:40:37.606Z,25.20
2018-06-21T06:41:11.576Z,25.30
2018-06-21T06:41:46.903Z,25.30
2018-06-21T06:42:20.789Z,25.30
2018-06-21T06:42:54.948Z,25.30
2018-06-21T06:43:28.935Z,25.30
2018-06-21T06:44:02.844Z,25.30
2018-06-21T06:44:37.175Z,25.40
2018-06-21T06:45:11.404Z,25.30
2018-06-21T06:45:45.332Z,25.30
2018-06-21T06:46:19.300Z,25.20
2018-06-21T06:46:53.290Z,25.20
2018-06-21T06:47:27.856Z,25.10
2018-06-21T06:48:01.744Z,25.10
2018-06-21T06:48:35.647Z,25.00
2018-06-21T06:49:09.728Z,25.00
2018-06-21T06:49:44.032Z,25.00
2018-06-21T06:50:18.229Z,25.00
2018-06-21T06:50:52.151Z,25.00
2018-06-21T06:51:26.126Z,25.00
2018-06-21T06:52:00.028Z,24.90
2018-06-21T06:52:33.890Z,24.90
2018-06-21T06:53:07.906Z,24.90
2018-06-21T06:53:41.801Z,24.90
2018-06-21T06:54:15.724Z,24.80
2018-06-21T06:54:50.109Z,24.80
2018-06-21T06:55:24.041Z,24.70
2018-06-21T06:55:58.040Z,24.70
2018-06-21T06:56:32.427Z,24.70
2018-06-21T06:57:06.404Z,24.60
2018-06-21T06:57:40.304Z,24.60
2018-06-21T06:58:14.195Z,24.60
2018-06-21T06:58:48.094Z,24.50
2018-06-21T06:59:21.969Z,24.60
2018-06-21T06:59:56.244Z,24.60
2018-06-21T07:00:30.115Z,24.60
2018-06-21T07:01:03.967Z,24.50
2018-06-21T07:01:37.864Z,24.60
2018-06-21T07:02:11.784Z,24.50
2018-06-21T07:02:45.656Z,24.50
2018-06-21T07:03:19.590Z,24.50
2018-06-21T07:03:53.486Z,24.50
2018-06-21T07:04:27.397Z,24.50
2018-06-21T07:05:01.666Z,24.40
2018-06-21T07:05:35.533Z,24.40
2018-06-21T07:06:09.432Z,24.40
2018-06-21T07:06:43.310Z,24.50
2018-06-21T07:07:17.288Z,24.50
2018-06-21T07:07:51.158Z,24.40
2018-06-21T07:08:25.093Z,24.40
2018-06-21T07:08:59.306Z,24.50
2018-06-21T07:09:33.512Z,24.50
2018-06-21T07:10:07.506Z,24.50
2018-06-21T07:10:41.405Z,24.50
2018-06-21T07:11:15.237Z,24.60
2018-06-21T07:11:49.464Z,24.50
2018-06-21T07:12:23.700Z,24.50
2018-06-21T07:12:57.867Z,24.60
2018-06-21T07:13:31.798Z,24.50
2018-06-21T07:14:06.806Z,24.60
2018-06-21T07:14:40.891Z,24.50
2018-06-21T07:15:15.028Z,24.60
2018-06-21T07:15:48.958Z,24.50
2018-06-21T07:16:23.450Z,24.50
2018-06-21T07:16:57.463Z,24.50
2018-06-21T07:17:32.071Z,24.50
2018-06-21T07:18:05.945Z,24.50
2018-06-21T07:18:39.919Z,24.50
2018-06-21T07:19:14.352Z,24.50
2018-06-21T07:19:48.241Z,24.50
2018-06-21T07:20:22.193Z,24.50
2018-06-21T07:20:56.531Z,24.40
2018-06-21T07:21:30.797Z,24.40
2018-06-21T07:22:05.028Z,24.40
2018-06-21T07:22:38.944Z,24.30
2018-06-21T07:23:12.897Z,24.30
2018-06-21T07:23:46.815Z,24.20
2018-06-21T07:24:20.732Z,24.10
2018-06-21T07:24:54.626Z,24.10
2018-06-21T07:25:28.558Z,24.10
2018-06-21T07:26:02.468Z,24.00
2018-06-21T07:26:37.116Z,23.90
2018-06-21T07:27:11.162Z,23.90
2018-06-21T07:27:45.275Z,23.80
2018-06-21T07:28:19.520Z,23.80
2018-06-21T07:28:53.612Z,23.60
2018-06-21T07:29:27.491Z,23.60
2018-06-21T07:30:01.368Z,23.50
2018-06-21T07:30:35.335Z,23.50
2018-06-21T07:31:09.221Z,23.40
2018-06-21T07:31:43.098Z,23.30
2018-06-21T07:32:17.354Z,23.30
2018-06-21T07:32:51.233Z,23.30
2018-06-21T07:33:25.096Z,23.30